Time;durP1;ratioP1;P1;durP2;ratioP2;P2;SDS_P1;SDS_P2;PMS_P1;PMS_P2;Temp;Humidity;BMP_temperature;BMP_pressure;BME280_temperature;BME280_humidity;BME280_pressure;Samples;Min_cycle;Max_cycle;Signal;HPM_P1;HPM_P2
2024/01/17 00:00:12;;;;;;;4.20;2.10;;;;;;;-4.91;75.91;95259.34;110577;1274;22126;-77
2024/01/17 00:03:02;;;;;;;21.20;10.30;;;;;;;-4.91;76.00;95260.20;110572;1274;22126;-77
2024/01/17 00:05:30;;;;;;;23.40;10.80;;;;;;;-4.85;76.03;95269.34;110598;1275;22607;-78
2024/01/17 00:07:58;;;;;;;19.30;9.70;;;;;;;-4.84;75.63;95276.06;110568;1274;22325;-77
2024/01/17 00:10:27;;;;;;;14.40;8.70;;;;;;;-4.84;75.61;95278.45;110616;1275;22129;-78
2024/01/17 00:12:55;;;;;;;14.20;8.20;;;;;;;-4.91;75.21;95281.64;110602;1274;22399;-78
2024/01/17 00:15:23;;;;;;;6.30;4.00;;;;;;;-5.00;75.12;95282.52;110563;1274;22227;-77
2024/01/17 00:17:52;;;;;;;5.20;3.10;;;;;;;-5.05;76.05;95288.18;110574;1274;22862;-77
2024/01/17 00:20:20;;;;;;;72.70;28.50;;;;;;;-5.01;76.22;95291.56;110595;1274;22110;-77
2024/01/17 00:22:49;;;;;;;7.70;4.20;;;;;;;-4.99;76.11;95292.85;110611;1274;22130;-77
2024/01/17 00:25:17;;;;;;;7.30;3.30;;;;;;;-4.97;75.68;95290.67;110611;1275;22214;-78
2024/01/17 00:27:49;;;;;;;3.10;1.70;;;;;;;-5.00;75.84;95291.79;110605;1274;22148;-78
2024/01/17 00:30:17;;;;;;;3.90;2.40;;;;;;;-4.98;75.81;95294.40;110538;1275;22156;-78
2024/01/17 00:32:46;;;;;;;3.80;1.80;;;;;;;-5.02;75.63;95299.77;110584;1274;22249;-78
2024/01/17 00:35:14;;;;;;;6.40;3.40;;;;;;;-4.99;76.03;95302.09;110604;1274;22796;-78
2024/01/17 00:37:42;;;;;;;4.00;1.90;;;;;;;-4.95;76.12;95308.45;110603;1267;22312;-78
2024/01/17 00:40:10;;;;;;;2.80;1.70;;;;;;;-4.83;76.48;95314.54;110567;1274;22942;-78
2024/01/17 00:42:40;;;;;;;3.20;1.20;;;;;;;-4.85;75.95;95304.83;110582;1275;22826;-77
2024/01/17 00:45:10;;;;;;;9.00;4.20;;;;;;;-4.88;75.86;95303.53;110578;1274;23104;-78
2024/01/17 00:47:38;;;;;;;25.30;11.40;;;;;;;-5.05;75.35;95301.39;110565;1274;22147;-78
2024/01/17 00:50:07;;;;;;;5.40;3.30;;;;;;;-5.22;75.22;95305.59;110622;1274;22134;-77
2024/01/17 00:52:36;;;;;;;8.60;3.80;;;;;;;-5.31;76.09;95304.55;110602;1274;22179;-78
2024/01/17 00:55:04;;;;;;;6.40;3.00;;;;;;;-5.23;76.80;95306.73;110594;1274;22121;-77
2024/01/17 00:57:33;;;;;;;15.70;6.50;;;;;;;-5.28;76.27;95300.54;110540;1274;22139;-77
2024/01/17 01:00:01;;;;;;;13.00;6.60;;;;;;;-5.27;76.09;95295.95;110534;1274;22904;-77
2024/01/17 01:02:29;;;;;;;11.70;5.70;;;;;;;-5.37;75.71;95289.92;110594;1274;22087;-78
2024/01/17 01:04:58;;;;;;;3.20;1.80;;;;;;;-5.39;75.96;95291.04;110566;1274;22134;-77
2024/01/17 01:07:26;;;;;;;4.10;1.60;;;;;;;-5.41;75.92;95296.61;110619;1275;22158;-77
2024/01/17 01:09:54;;;;;;;3.70;1.60;;;;;;;-5.41;76.20;95298.33;110600;1275;22187;-77
2024/01/17 01:12:24;;;;;;;4.50;2.30;;;;;;;-5.35;76.35;95293.92;110623;1275;22127;-77
2024/01/17 01:14:53;;;;;;;2.00;1.20;;;;;;;-5.42;75.94;95283.77;110519;1271;22789;-77
2024/01/17 01:17:21;;;;;;;7.10;3.40;;;;;;;-5.46;75.89;95287.89;110601;1274;22164;-78
2024/01/17 01:19:49;;;;;;;10.00;4.00;;;;;;;-5.54;76.46;95282.80;110605;1274;22913;-77
2024/01/17 01:22:17;;;;;;;2.50;1.30;;;;;;;-5.57;76.63;95279.94;110588;1275;22206;-78
2024/01/17 01:24:46;;;;;;;2.40;1.20;;;;;;;-5.54;76.99;95275.60;110571;1274;22158;-78
2024/01/17 01:27:14;;;;;;;1.60;0.90;;;;;;;-5.51;76.84;95279.48;110609;1274;22451;-77
2024/01/17 01:29:42;;;;;;;2.10;1.00;;;;;;;-5.48;76.68;95280.10;110592;1275;22132;-77
2024/01/17 01:32:11;;;;;;;6.50;3.10;;;;;;;-5.46;77.12;95272.12;110510;1274;22160;-77
2024/01/17 01:34:39;;;;;;;8.50;4.10;;;;;;;-5.37;77.50;95268.50;110612;1274;22141;-78
2024/01/17 01:37:07;;;;;;;10.30;4.00;;;;;;;-5.31;76.81;95264.59;110571;1274;22234;-77
2024/01/17 01:39:35;;;;;;;7.20;4.40;;;;;;;-5.31;76.71;95259.79;110605;1274;22974;-77
2024/01/17 01:42:03;;;;;;;4.70;2.50;;;;;;;-5.27;77.03;95255.65;110585;1274;22244;-77
2024/01/17 01:44:32;;;;;;;2.50;1.50;;;;;;;-5.23;76.64;95253.42;110590;1274;22874;-78
2024/01/17 01:47:00;;;;;;;2.80;1.40;;;;;;;-5.26;76.56;95250.05;110602;1274;22303;-77
2024/01/17 01:49:29;;;;;;;2.10;1.40;;;;;;;-5.17;77.06;95246.07;110589;1274;23089;-77
2024/01/17 01:51:57;;;;;;;3.00;1.40;;;;;;;-5.11;76.56;95240.12;110594;1274;22151;-77
2024/01/17 01:54:26;;;;;;;8.60;4.60;;;;;;;-5.09;76.58;95237.77;110616;1270;22126;-77
2024/01/17 01:56:55;;;;;;;11.80;6.10;;;;;;;-5.10;76.27;95241.88;110595;1274;22287;-78
2024/01/17 01:59:23;;;;;;;13.40;6.90;;;;;;;-5.15;76.03;95243.23;110602;1274;22120;-77
2024/01/17 02:01:52;;;;;;;20.20;10.40;;;;;;;-5.25;76.32;95243.05;110601;1274;22335;-77
2024/01/17 02:04:21;;;;;;;20.60;10.50;;;;;;;-5.30;76.21;95245.96;110559;1274;22209;-77
2024/01/17 02:06:51;;;;;;;10.90;6.40;;;;;;;-5.42;75.86;95246.58;110576;1274;22947;-77
2024/01/17 02:09:19;;;;;;;7.40;3.80;;;;;;;-5.43;76.28;95239.84;110605;1274;22124;-77
2024/01/17 02:11:47;;;;;;;9.10;4.10;;;;;;;-5.45;76.47;95231.72;110601;1274;22105;-77
2024/01/17 02:14:17;;;;;;;6.00;3.10;;;;;;;-5.43;76.73;95231.60;110586;1274;22342;-77
2024/01/17 02:16:46;;;;;;;8.00;4.10;;;;;;;-5.46;76.17;95233.39;110578;1274;22185;-77
2024/01/17 02:19:16;;;;;;;6.10;3.60;;;;;;;-5.48;76.17;95235.89;110616;1274;22202;-77
2024/01/17 02:21:44;;;;;;;5.00;2.60;;;;;;;-5.59;75.60;95241.30;110580;1274;22105;-78
2024/01/17 02:24:17;;;;;;;6.10;3.30;;;;;;;-5.66;76.15;95243.63;110607;1274;23048;-77
2024/01/17 02:26:45;;;;;;;5.60;2.80;;;;;;;-5.76;75.45;95242.74;110581;1274;22195;-77
2024/01/17 02:29:13;;;;;;;5.40;2.60;;;;;;;-5.84;76.10;95242.74;110593;1274;22135;-77
2024/01/17 02:31:44;;;;;;;6.70;3.50;;;;;;;-5.87;76.14;95241.14;110566;1274;22089;-77
2024/01/17 02:34:12;;;;;;;5.60;3.10;;;;;;;-5.82;76.57;95242.67;110537;1274;22098;-78
2024/01/17 02:36:41;;;;;;;7.10;3.50;;;;;;;-5.85;75.84;95242.91;110583;1274;22185;-77
2024/01/17 02:39:10;;;;;;;9.00;3.50;;;;;;;-5.91;75.51;95242.34;110594;1274;22145;-77
2024/01/17 02:41:39;;;;;;;7.10;2.80;;;;;;;-6.00;75.37;95243.05;110502;1275;22779;-77
2024/01/17 02:44:07;;;;;;;5.70;2.80;;;;;;;-6.06;75.36;95243.65;110616;1274;22146;-77
2024/01/17 02:46:35;;;;;;;5.90;3.00;;;;;;;-6.18;75.09;95241.48;110608;1274;22097;-77
2024/01/17 02:49:04;;;;;;;8.30;3.90;;;;;;;-6.23;75.73;95240.78;110601;1274;22284;-77
2024/01/17 02:51:33;;;;;;;5.60;3.30;;;;;;;-6.28;75.36;95240.75;110572;1274;22734;-77
2024/01/17 02:54:01;;;;;;;5.30;3.00;;;;;;;-6.41;75.20;95238.88;110602;1274;22855;-77
2024/01/17 02:56:29;;;;;;;7.10;3.20;;;;;;;-6.47;75.57;95237.11;110633;1274;22121;-77
2024/01/17 02:58:57;;;;;;;7.70;3.30;;;;;;;-6.49;75.87;95237.86;110606;1274;22964;-77
2024/01/17 03:01:26;;;;;;;10.50;5.00;;;;;;;-6.54;75.69;95239.55;110594;1274;22249;-77
2024/01/17 03:03:54;;;;;;;8.70;3.70;;;;;;;-6.68;75.46;95248.41;110542;1274;22134;-77
2024/01/17 03:06:23;;;;;;;6.40;3.20;;;;;;;-6.78;75.59;95250.56;110560;1274;22291;-77
2024/01/17 03:08:51;;;;;;;7.00;3.00;;;;;;;-6.84;75.61;95252.19;110614;1274;22158;-77
2024/01/17 03:11:19;;;;;;;7.30;3.60;;;;;;;-6.92;76.21;95250.10;110602;1274;22282;-77
2024/01/17 03:13:47;;;;;;;6.00;3.00;;;;;;;-7.02;76.09;95253.13;110515;1274;22192;-77
2024/01/17 03:16:19;;;;;;;6.80;3.60;;;;;;;-7.14;76.23;95256.88;110575;1274;22837;-77
2024/01/17 03:18:47;;;;;;;7.00;3.60;;;;;;;-7.18;76.19;95255.69;110637;1274;22174;-77
2024/01/17 03:21:16;;;;;;;9.30;3.70;;;;;;;-7.13;77.11;95253.17;110522;1274;22161;-77
2024/01/17 03:23:44;;;;;;;5.80;3.10;;;;;;;-7.12;76.66;95255.11;110500;1274;22198;-77
2024/01/17 03:26:13;;;;;;;5.30;3.20;;;;;;;-7.15;76.63;95252.05;110611;1274;23135;-77
2024/01/17 03:28:43;;;;;;;5.50;3.10;;;;;;;-7.10;77.03;95248.33;110619;1274;22750;-78
2024/01/17 03:31:11;;;;;;;4.70;2.60;;;;;;;-7.07;77.02;95247.80;110571;1274;22292;-77
2024/01/17 03:33:39;;;;;;;7.40;2.80;;;;;;;-7.15;76.11;95245.40;110595;1274;22275;-77
2024/01/17 03:36:07;;;;;;;6.50;2.80;;;;;;;-7.31;76.03;95241.45;110579;1274;22425;-77
2024/01/17 03:38:36;;;;;;;5.00;2.80;;;;;;;-7.32;76.65;95238.50;110576;1274;22393;-77
2024/01/17 03:41:06;;;;;;;7.20;3.00;;;;;;;-7.27;77.19;95239.06;110605;1274;22141;-77
2024/01/17 03:43:34;;;;;;;7.10;2.90;;;;;;;-7.23;77.13;95236.02;110591;1274;22132;-77
2024/01/17 03:46:02;;;;;;;6.00;3.20;;;;;;;-7.25;76.55;95236.40;110584;1274;22192;-77
2024/01/17 03:48:31;;;;;;;5.10;2.50;;;;;;;-7.36;76.09;95233.20;110600;1274;22102;-77
2024/01/17 03:51:00;;;;;;;5.30;2.10;;;;;;;-7.39;76.74;95231.21;110579;1274;22126;-77
2024/01/17 03:53:28;;;;;;;4.20;2.20;;;;;;;-7.36;76.82;95232.71;110607;1274;22119;-77
2024/01/17 03:55:56;;;;;;;5.20;2.20;;;;;;;-7.32;77.01;95235.77;110548;1274;22214;-77
2024/01/17 03:58:25;;;;;;;4.00;2.00;;;;;;;-7.23;77.51;95238.56;110583;1274;22562;-77
2024/01/17 04:00:53;;;;;;;5.50;2.70;;;;;;;-7.17;77.16;95239.69;110571;1274;22148;-77
2024/01/17 04:03:21;;;;;;;6.50;2.50;;;;;;;-7.23;76.27;95237.70;110560;1274;22203;-77
2024/01/17 04:05:49;;;;;;;4.20;2.30;;;;;;;-7.33;76.09;95238.80;110599;1274;22758;-77
2024/01/17 04:08:17;;;;;;;2.90;1.70;;;;;;;-7.42;75.94;95241.33;110626;1274;22269;-77
2024/01/17 04:10:45;;;;;;;2.50;1.40;;;;;;;-7.50;75.63;95235.69;110607;1274;22124;-77
2024/01/17 04:13:13;;;;;;;5.10;1.80;;;;;;;-7.70;75.38;95232.94;110589;1260;22147;-77
2024/01/17 04:15:42;;;;;;;1.70;1.30;;;;;;;-7.69;76.54;95224.92;110471;1274;22892;-77
2024/01/17 04:18:11;;;;;;;2.20;1.30;;;;;;;-7.63;76.67;95224.73;110589;1274;22143;-77
2024/01/17 04:20:39;;;;;;;2.80;1.50;;;;;;;-7.62;76.67;95217.92;110532;1274;22321;-77
2024/01/17 04:23:08;;;;;;;2.30;1.00;;;;;;;-7.57;76.46;95218.77;110614;1274;22129;-77
2024/01/17 04:25:37;;;;;;;2.80;1.20;;;;;;;-7.61;76.24;95222.40;110558;1274;22220;-77
2024/01/17 04:28:06;;;;;;;1.50;1.00;;;;;;;-7.55;76.90;95217.68;110527;1274;23045;-77
2024/01/17 04:30:34;;;;;;;1.40;1.00;;;;;;;-7.57;76.13;95215.24;110602;1274;22222;-77
2024/01/17 04:33:03;;;;;;;1.30;0.90;;;;;;;-7.73;75.37;95219.81;110533;1274;22129;-77
2024/01/17 04:35:31;;;;;;;1.90;1.10;;;;;;;-7.77;76.24;95220.13;110557;1274;22848;-77
2024/01/17 04:38:00;;;;;;;2.10;1.20;;;;;;;-7.83;75.86;95214.23;110606;1274;22918;-77
2024/01/17 04:40:28;;;;;;;2.70;1.80;;;;;;;-7.82;76.38;95212.77;110625;1274;22137;-76
2024/01/17 04:42:56;;;;;;;1.50;0.80;;;;;;;-7.80;76.24;95211.65;110580;1274;22201;-77
2024/01/17 04:45:24;;;;;;;2.70;1.50;;;;;;;-7.80;76.27;95211.33;110482;1274;22217;-77
2024/01/17 04:47:52;;;;;;;1.90;0.90;;;;;;;-7.84;75.96;95208.89;110596;1274;22159;-77
2024/01/17 04:50:21;;;;;;;1.60;1.20;;;;;;;-7.98;75.06;95205.02;110626;1274;22092;-77
2024/01/17 04:52:50;;;;;;;2.50;1.50;;;;;;;-8.04;75.93;95198.44;110620;1274;22283;-77
2024/01/17 04:55:18;;;;;;;1.70;0.90;;;;;;;-8.00;76.27;95198.64;110612;1274;22108;-77
2024/01/17 04:57:47;;;;;;;1.00;0.70;;;;;;;-8.01;76.00;95206.09;110643;1274;22133;-77
2024/01/17 05:00:16;;;;;;;2.10;1.00;;;;;;;-7.95;76.64;95208.05;110576;1274;22236;-77
2024/01/17 05:02:44;;;;;;;2.70;1.60;;;;;;;-7.91;76.52;95202.11;110610;1274;22380;-77
2024/01/17 05:05:12;;;;;;;2.10;1.10;;;;;;;-7.89;76.29;95197.94;110601;1274;22112;-77
2024/01/17 05:07:40;;;;;;;1.80;1.00;;;;;;;-7.90;76.08;95201.80;110556;1260;22935;-77
2024/01/17 05:10:09;;;;;;;1.70;1.10;;;;;;;-7.87;76.16;95195.80;110606;1274;22849;-77
2024/01/17 05:12:37;;;;;;;3.80;0.90;;;;;;;-7.97;75.40;95194.84;110637;1274;22157;-77
2024/01/17 05:15:05;;;;;;;1.60;1.10;;;;;;;-8.02;75.64;95201.09;110606;1274;22225;-76
2024/01/17 05:17:33;;;;;;;2.10;1.30;;;;;;;-8.00;76.02;95205.95;110631;1274;22138;-77
2024/01/17 05:20:02;;;;;;;2.40;1.80;;;;;;;-8.05;75.48;95204.90;110594;1274;22159;-77
2024/01/17 05:22:31;;;;;;;2.10;0.90;;;;;;;-8.18;74.97;95201.90;110546;1274;22239;-77
2024/01/17 05:24:59;;;;;;;2.90;0.70;;;;;;;-8.30;75.07;95202.58;110582;1274;22913;-77
2024/01/17 05:27:27;;;;;;;1.90;0.70;;;;;;;-8.33;75.76;95199.17;110607;1274;23044;-77
2024/01/17 05:29:55;;;;;;;2.50;0.70;;;;;;;-8.36;75.79;95192.05;110535;1274;22289;-77
2024/01/17 05:32:23;;;;;;;0.80;0.60;;;;;;;-8.41;75.73;95194.73;110546;1274;22297;-77
2024/01/17 05:34:53;;;;;;;2.70;1.30;;;;;;;-8.36;76.18;95193.56;110597;1274;22286;-77
2024/01/17 05:37:23;;;;;;;2.30;1.10;;;;;;;-8.37;75.87;95196.41;110580;1274;23015;-77
2024/01/17 05:39:52;;;;;;;1.00;0.70;;;;;;;-8.42;75.46;95189.23;110604;1274;22296;-77
2024/01/17 05:42:21;;;;;;;0.70;0.40;;;;;;;-8.53;75.37;95190.26;110173;1263;575051;-77
2024/01/17 05:44:49;;;;;;;1.10;0.70;;;;;;;-8.52;76.12;95185.52;110624;1274;22861;-77
2024/01/17 05:47:17;;;;;;;1.80;0.80;;;;;;;-8.50;75.90;95178.65;110606;1274;22207;-77
2024/01/17 05:49:46;;;;;;;1.50;0.80;;;;;;;-8.54;75.76;95174.67;110619;1274;22121;-77
2024/01/17 05:52:15;;;;;;;2.00;0.90;;;;;;;-8.56;75.76;95169.65;110597;1274;22895;-77
2024/01/17 05:54:43;;;;;;;1.40;0.70;;;;;;;-8.58;76.04;95173.64;110621;1274;22430;-76
2024/01/17 05:57:12;;;;;;;0.80;0.60;;;;;;;-8.53;76.08;95171.16;110546;1274;22885;-77
2024/01/17 05:59:40;;;;;;;1.00;0.60;;;;;;;-8.52;75.90;95172.77;110604;1274;22863;-77
2024/01/17 06:02:08;;;;;;;1.70;0.70;;;;;;;-8.55;75.87;95175.32;110579;1274;22157;-76
2024/01/17 06:04:36;;;;;;;9.70;8.10;;;;;;;-8.51;76.04;95177.42;110633;1274;22293;-76
2024/01/17 06:07:04;;;;;;;9.10;6.10;;;;;;;-8.44;76.34;95180.11;110614;1274;22470;-77
2024/01/17 06:09:32;;;;;;;1.50;0.80;;;;;;;-8.38;76.46;95174.39;110608;1274;22188;-76
2024/01/17 06:12:00;;;;;;;1.70;0.80;;;;;;;-8.32;75.99;95178.23;110597;1274;22874;-76
2024/01/17 06:14:29;;;;;;;1.40;0.80;;;;;;;-8.28;76.06;95173.31;110600;1274;22135;-76
2024/01/17 06:16:57;;;;;;;2.20;1.60;;;;;;;-8.24;75.92;95161.36;110579;1274;22194;-76
2024/01/17 06:19:25;;;;;;;1.90;0.90;;;;;;;-8.18;75.91;95149.51;110606;1274;22767;-77
2024/01/17 06:21:53;;;;;;;3.90;1.90;;;;;;;-8.17;75.26;95145.48;110595;1274;22273;-76
2024/01/17 06:24:22;;;;;;;1.30;0.50;;;;;;;-8.26;74.56;95138.95;110580;1274;22134;-76
2024/01/17 06:26:50;;;;;;;2.90;1.30;;;;;;;-8.34;74.99;95142.33;110605;1274;22288;-76
2024/01/17 06:29:18;;;;;;;2.40;1.20;;;;;;;-8.33;74.98;95131.98;110607;1274;22201;-77
2024/01/17 06:31:46;;;;;;;0.80;0.60;;;;;;;-8.40;74.72;95132.35;110593;1274;22183;-76
2024/01/17 06:34:15;;;;;;;1.10;0.50;;;;;;;-8.36;75.62;95125.52;110564;1264;22300;-77
2024/01/17 06:36:44;;;;;;;0.20;0.20;;;;;;;-8.25;75.82;95133.20;110589;1274;22937;-77
2024/01/17 06:39:12;;;;;;;1.80;1.30;;;;;;;-8.16;75.51;95127.42;110599;1274;22112;-77
2024/01/17 06:41:40;;;;;;;0.60;0.20;;;;;;;-8.27;74.30;95119.78;110610;1274;22157;-77
2024/01/17 06:44:09;;;;;;;35.70;16.00;;;;;;;-8.28;75.16;95117.18;110564;1274;22267;-76
2024/01/17 06:46:38;;;;;;;10.30;5.10;;;;;;;-8.27;74.85;95123.02;110419;1274;22178;-77
2024/01/17 06:49:06;;;;;;;9.60;4.20;;;;;;;-8.28;74.87;95122.29;110591;1274;22905;-76
2024/01/17 06:51:34;;;;;;;7.30;3.10;;;;;;;-8.26;74.94;95119.48;110636;1274;22305;-77
2024/01/17 06:54:02;;;;;;;25.80;12.70;;;;;;;-8.19;75.39;95120.96;110588;1274;22340;-77
2024/01/17 06:56:32;;;;;;;2.10;1.20;;;;;;;-8.08;75.60;95119.92;110611;1274;22142;-76
2024/01/17 06:59:00;;;;;;;63.80;27.50;;;;;;;-7.96;75.48;95121.81;110620;1274;22287;-76
2024/01/17 07:01:29;;;;;;;5.40;2.30;;;;;;;-7.87;75.58;95119.50;110602;1274;22212;-78
2024/01/17 07:03:57;;;;;;;20.90;9.00;;;;;;;-7.74;75.31;95121.41;110599;1274;22983;-78
2024/01/17 07:06:25;;;;;;;19.70;9.20;;;;;;;-7.67;75.35;95114.04;110634;1274;23103;-80
2024/01/17 07:08:54;;;;;;;17.20;8.50;;;;;;;-7.53;75.33;95111.23;110569;1274;22255;-78
2024/01/17 07:11:22;;;;;;;22.70;12.70;;;;;;;-7.27;75.68;95106.80;110620;1274;22116;-78
2024/01/17 07:13:50;;;;;;;21.70;12.00;;;;;;;-7.06;74.88;95101.34;110635;1274;22116;-77
2024/01/17 07:16:18;;;;;;;22.80;11.40;;;;;;;-6.91;74.19;95093.38;110528;1274;22168;-78
2024/01/17 07:18:47;;;;;;;28.80;9.60;;;;;;;-6.80;73.41;95083.04;110589;1274;22657;-77
2024/01/17 07:21:15;;;;;;;68.20;17.30;;;;;;;-6.65;73.05;95061.91;110574;1274;22082;-76
2024/01/17 07:23:44;;;;;;;54.10;18.10;;;;;;;-6.44;72.77;95057.73;110601;1274;23042;-75
2024/01/17 07:26:12;;;;;;;121.40;32.00;;;;;;;-6.26;72.38;95059.23;110557;1274;22991;-75
2024/01/17 07:28:40;;;;;;;88.40;24.10;;;;;;;-6.09;71.14;95056.24;110577;1274;23008;-75
2024/01/17 07:31:09;;;;;;;66.10;18.00;;;;;;;-6.02;70.46;95058.36;110608;1260;22208;-75
2024/01/17 07:33:37;;;;;;;99.60;26.80;;;;;;;-6.08;70.38;95049.77;110584;1274;22316;-75
2024/01/17 07:36:05;;;;;;;79.30;21.20;;;;;;;-6.07;69.73;95051.35;110576;1274;22113;-75
2024/01/17 07:38:34;;;;;;;35.90;13.70;;;;;;;-6.18;69.46;95048.04;110549;1274;22235;-77
2024/01/17 07:41:02;;;;;;;60.70;22.80;;;;;;;-6.14;70.02;95061.55;110576;1274;22126;-76
2024/01/17 07:43:31;;;;;;;20.60;11.30;;;;;;;-6.05;70.24;95057.41;110609;1274;22178;-76
2024/01/17 07:46:00;;;;;;;18.70;9.10;;;;;;;-5.96;69.85;95054.48;110588;1274;22896;-75
2024/01/17 07:48:29;;;;;;;18.10;8.70;;;;;;;-5.82;70.17;95056.48;110602;1274;22990;-75
2024/01/17 07:50:57;;;;;;;34.50;17.30;;;;;;;-5.75;69.24;95053.14;110592;1274;22274;-76
2024/01/17 07:53:26;;;;;;;26.30;13.20;;;;;;;-5.60;69.57;95047.13;110581;1274;22097;-78
2024/01/17 07:55:55;;;;;;;20.90;10.30;;;;;;;-5.42;69.68;95042.40;110542;1274;22139;-77
2024/01/17 07:58:24;;;;;;;22.60;11.80;;;;;;;-5.18;70.14;95042.20;110527;1274;22141;-77
2024/01/17 08:00:53;;;;;;;50.90;25.00;;;;;;;-4.94;69.36;95034.51;110625;1274;22263;-76
2024/01/17 08:03:22;;;;;;;23.70;10.60;;;;;;;-4.79;68.23;95026.41;110606;1274;23275;-77
2024/01/17 08:05:51;;;;;;;31.00;16.80;;;;;;;-4.70;67.65;95033.89;110613;1274;22143;-76
2024/01/17 08:08:19;;;;;;;27.30;12.80;;;;;;;-4.62;67.30;95030.52;110617;1274;22283;-76
2024/01/17 08:10:47;;;;;;;16.90;9.00;;;;;;;-4.49;67.36;95032.30;110578;1274;22166;-77
2024/01/17 08:13:17;;;;;;;21.80;8.30;;;;;;;-4.31;67.25;95027.65;110619;1267;22360;-77
2024/01/17 08:15:45;;;;;;;44.90;16.00;;;;;;;-4.17;67.00;95023.40;110569;1274;22591;-78
2024/01/17 08:18:13;;;;;;;38.10;11.70;;;;;;;-3.99;66.85;95016.20;110583;1270;22946;-78
2024/01/17 08:20:43;;;;;;;55.20;16.30;;;;;;;-3.85;66.41;95011.59;110601;1259;22324;-78
2024/01/17 08:23:11;;;;;;;102.60;28.10;;;;;;;-3.63;66.92;95015.26;110611;1267;22182;-79
2024/01/17 08:25:39;;;;;;;55.30;16.00;;;;;;;-3.47;66.36;95013.09;110602;1269;22185;-79
2024/01/17 08:28:08;;;;;;;22.80;6.20;;;;;;;-3.36;66.09;95008.37;110557;1270;22404;-79
2024/01/17 08:30:36;;;;;;;13.60;5.80;;;;;;;-3.31;65.69;95015.73;110561;1269;22791;-78
2024/01/17 08:33:04;;;;;;;7.80;3.60;;;;;;;-3.18;65.93;95013.11;110604;1274;22207;-78
2024/01/17 08:35:33;;;;;;;5.40;3.40;;;;;;;-3.10;65.35;95019.15;110588;1274;23171;-77
2024/01/17 08:38:01;;;;;;;9.70;3.70;;;;;;;-3.08;65.08;95016.29;110607;1260;22212;-77
2024/01/17 08:40:31;;;;;;;52.40;31.40;;;;;;;-2.96;65.38;95009.86;110579;1274;22131;-79
2024/01/17 08:43:04;;;;;;;5.00;3.00;;;;;;;-2.83;65.57;95016.02;110594;1274;22133;-79
2024/01/17 08:45:33;;;;;;;5.30;3.10;;;;;;;-2.76;64.31;95014.27;110574;1274;22252;-79
2024/01/17 08:48:01;;;;;;;12.40;6.50;;;;;;;-2.70;64.47;95005.11;110467;1275;22184;-79
2024/01/17 08:50:29;;;;;;;28.80;13.70;;;;;;;-2.70;63.66;95011.48;110536;1275;22346;-81
2024/01/17 08:52:58;;;;;;;35.60;17.80;;;;;;;-2.77;63.49;95014.92;110576;1274;22147;-81
2024/01/17 08:55:26;;;;;;;36.50;18.60;;;;;;;-2.75;63.62;95021.69;110570;1274;22188;-81
2024/01/17 08:57:54;;;;;;;16.00;9.10;;;;;;;-2.66;63.71;95016.23;110596;1274;22358;-82
2024/01/17 09:00:22;;;;;;;7.80;4.90;;;;;;;-2.58;63.17;95012.79;110589;1274;22861;-82
2024/01/17 09:02:51;;;;;;;20.10;12.10;;;;;;;-2.54;63.06;95007.21;110543;1274;23427;-80
2024/01/17 09:05:20;;;;;;;14.20;7.00;;;;;;;-2.42;62.83;94998.14;110552;1274;22788;-81
2024/01/17 09:07:49;;;;;;;8.30;4.40;;;;;;;-2.34;62.83;95001.93;110609;1274;22183;-80
2024/01/17 09:10:17;;;;;;;8.70;5.60;;;;;;;-2.23;62.49;94998.02;110554;1274;22141;-81
2024/01/17 09:12:46;;;;;;;12.40;6.40;;;;;;;-2.21;61.75;94994.11;110612;1274;22354;-80
2024/01/17 09:15:14;;;;;;;6.90;3.80;;;;;;;-2.17;62.67;94983.15;110573;1274;22221;-81
2024/01/17 09:17:43;;;;;;;7.20;3.60;;;;;;;-2.02;62.58;94975.88;110596;1274;22307;-81
2024/01/17 09:20:13;;;;;;;5.80;3.80;;;;;;;-1.97;62.45;94967.37;110559;1274;22333;-81
2024/01/17 09:22:41;;;;;;;9.40;4.60;;;;;;;-1.84;62.57;94965.02;110592;1274;22193;-82
2024/01/17 09:25:10;;;;;;;9.00;5.00;;;;;;;-1.76;62.38;94954.13;110591;1274;22193;-81
2024/01/17 09:27:38;;;;;;;7.70;4.20;;;;;;;-1.67;62.26;94952.06;110602;1274;22230;-79
2024/01/17 09:30:07;;;;;;;10.20;4.60;;;;;;;-1.62;62.38;94949.03;110573;1274;22249;-77
2024/01/17 09:32:37;;;;;;;6.20;4.00;;;;;;;-1.57;62.36;94943.77;110569;1274;22963;-77
2024/01/17 09:35:08;;;;;;;11.10;6.00;;;;;;;-1.51;62.02;94943.02;110603;1274;22291;-79
2024/01/17 09:37:36;;;;;;;13.80;7.80;;;;;;;-1.42;61.98;94936.09;110559;1269;22346;-80
2024/01/17 09:40:05;;;;;;;9.40;5.10;;;;;;;-1.29;62.17;94934.75;110582;1269;22313;-78
2024/01/17 09:42:33;;;;;;;6.30;3.40;;;;;;;-1.11;61.55;94933.30;110566;1269;23024;-79
2024/01/17 09:45:02;;;;;;;8.70;4.20;;;;;;;-0.95;60.86;94930.78;110541;1274;22360;-80
2024/01/17 09:47:32;;;;;;;5.20;2.90;;;;;;;-0.97;59.37;94927.30;110552;1270;22283;-78
2024/01/17 09:50:01;;;;;;;10.50;6.20;;;;;;;-0.94;60.09;94924.94;110515;1274;22321;-79
2024/01/17 09:52:33;;;;;;;9.20;5.40;;;;;;;-0.98;60.25;94924.52;110514;1274;22187;-80
2024/01/17 09:55:02;;;;;;;6.30;4.00;;;;;;;-0.80;60.83;94922.36;110592;1274;22144;-79
2024/01/17 09:57:34;;;;;;;7.30;4.20;;;;;;;-0.55;60.33;94932.55;110502;1267;22133;-80
2024/01/17 10:00:07;;;;;;;10.70;4.80;;;;;;;-0.34;58.21;94930.91;110548;1275;22195;-80
2024/01/17 10:02:37;;;;;;;14.80;5.40;;;;;;;-0.20;59.04;94924.87;110526;1275;22143;-79
2024/01/17 10:05:11;;;;;;;14.60;7.30;;;;;;;-0.16;58.97;94926.30;110526;1274;22812;-78
2024/01/17 10:07:40;;;;;;;9.40;5.20;;;;;;;-0.31;58.71;94922.83;110542;1274;22935;-78
2024/01/17 10:10:11;;;;;;;8.70;5.00;;;;;;;-0.33;58.85;94927.48;110605;1274;22184;-79
2024/01/17 10:12:41;;;;;;;9.00;5.30;;;;;;;-0.26;59.67;94922.20;110602;1274;22847;-77
2024/01/17 10:15:16;;;;;;;11.00;6.50;;;;;;;-0.35;58.79;94920.89;110611;1274;22939;-78
2024/01/17 10:17:44;;;;;;;17.80;5.60;;;;;;;-0.37;59.13;94914.11;110601;1274;22172;-78
2024/01/17 10:20:13;;;;;;;12.20;6.90;;;;;;;-0.45;59.57;94912.79;110552;1274;22117;-79
2024/01/17 10:22:41;;;;;;;17.00;10.30;;;;;;;-0.56;59.43;94908.19;110599;1274;22591;-78
2024/01/17 10:25:11;;;;;;;17.20;9.10;;;;;;;-0.70;59.89;94899.38;110557;1274;22108;-78
2024/01/17 10:27:40;;;;;;;22.30;15.50;;;;;;;-0.85;59.97;94894.84;110599;1274;22129;-78
2024/01/17 10:30:10;;;;;;;19.30;12.60;;;;;;;-0.99;60.40;94889.99;110627;1274;22161;-78
2024/01/17 10:32:39;;;;;;;13.80;8.60;;;;;;;-1.18;61.04;94888.51;110602;1274;22151;-78
2024/01/17 10:35:07;;;;;;;12.70;7.60;;;;;;;-1.31;62.10;94880.71;110585;1274;22398;-78
2024/01/17 10:40:14;;;;;;;11.80;6.30;;;;;;;-0.98;61.98;94873.95;103576;1313;544874;-76
2024/01/17 10:42:42;;;;;;;10.80;7.20;;;;;;;-0.80;61.07;94871.24;106173;1288;22550;-75
2024/01/17 10:45:22;;;;;;;14.20;9.90;;;;;;;-0.76;60.60;94867.31;106150;1288;22602;-76
2024/01/17 10:47:50;;;;;;;13.50;9.20;;;;;;;-0.79;60.79;94869.37;106158;1288;22621;-76
2024/01/17 10:50:20;;;;;;;10.90;7.50;;;;;;;-0.68;61.05;94866.05;105812;1288;22536;-79
2024/01/17 10:52:50;;;;;;;13.30;8.00;;;;;;;-0.41;60.26;94852.21;105319;1286;695008;-78
2024/01/17 10:55:21;;;;;;;14.10;8.40;;;;;;;-0.52;60.17;94852.95;105928;1285;24213;-78
2024/01/17 10:57:50;;;;;;;12.90;7.10;;;;;;;-0.60;60.43;94849.23;105934;1286;22673;-78
2024/01/17 11:00:29;;;;;;;19.90;11.70;;;;;;;-0.52;60.71;94839.66;106006;1285;22532;-77
2024/01/17 11:03:00;;;;;;;13.60;7.90;;;;;;;-0.57;60.29;94830.44;105925;1285;22499;-78
2024/01/17 11:05:32;;;;;;;12.20;7.00;;;;;;;-0.54;60.33;94836.69;105955;1280;22536;-78
2024/01/17 11:08:02;;;;;;;11.10;6.80;;;;;;;-0.54;60.21;94832.03;105991;1285;24376;-78
2024/01/17 11:10:31;;;;;;;12.10;7.70;;;;;;;-0.42;60.39;94826.81;106017;1285;22543;-78
2024/01/17 11:13:00;;;;;;;14.50;8.00;;;;;;;-0.03;60.36;94818.55;105927;1285;24270;-78
2024/01/17 11:15:29;;;;;;;34.20;14.20;;;;;;;0.43;59.24;94817.21;105915;1286;25418;-78
2024/01/17 11:18:00;;;;;;;22.20;11.70;;;;;;;0.63;57.92;94805.77;106177;1283;22672;-78
2024/01/17 11:20:28;;;;;;;19.10;9.70;;;;;;;0.53;58.03;94801.20;106097;1283;24231;-78
2024/01/17 11:23:01;;;;;;;14.80;8.50;;;;;;;0.52;57.98;94798.43;106169;1283;25439;-78
2024/01/17 11:25:37;;;;;;;11.00;7.10;;;;;;;0.54;58.24;94791.52;106069;1283;22808;-78
2024/01/17 11:28:32;;;;;;;26.60;12.90;;;;;;;0.78;58.05;94784.91;106099;1283;24393;-77
2024/01/17 11:31:25;;;;;;;42.00;19.90;;;;;;;0.97;56.97;94773.42;106119;1283;22540;-78